Time;durP1;ratioP1;P1;durP2;ratioP2;P2;SDS_P1;SDS_P2;PMS_P1;PMS_P2;Temp;Humidity;BMP_temperature;BMP_pressure;BME280_temperature;BME280_humidity;BME280_pressure;Samples;Min_cycle;Max_cycle;Signal;HPM_P1;HPM_P2
2022/07/16 00:03:33;;;;;;;3.50;1.58;;;;;;;;;;5015643;28;20040;-45
2022/07/16 00:05:58;;;;;;;4.90;2.15;;;;;;;;;;5015781;28;20463;-44
2022/07/16 00:08:24;;;;;;;2.88;1.60;;;;;;;;;;5015755;28;20478;-42
2022/07/16 00:10:49;;;;;;;2.67;1.50;;;;;;;;;;5015763;28;20030;-43
2022/07/16 00:13:15;;;;;;;5.65;2.05;;;;;;;;;;5015464;28;20486;-41
2022/07/16 00:15:40;;;;;;;4.25;1.63;;;;;;;;;;5015378;28;20025;-42
2022/07/16 00:20:50;;;;;;;4.35;1.70;;;;;;;;;;5015638;28;20509;-42
2022/07/16 00:23:15;;;;;;;1.70;1.40;;;;;;;;;;5015478;28;20026;-42
2022/07/16 00:25:40;;;;;;;1.73;1.42;;;;;;;;;;5015431;28;20033;-41
2022/07/16 00:28:07;;;;;;;3.60;1.73;;;;;;;;;;5015183;28;20026;-42
2022/07/16 00:30:33;;;;;;;5.63;1.75;;;;;;;;;;5015132;28;20030;-41
2022/07/16 00:32:59;;;;;;;7.40;1.90;;;;;;;;;;5015022;28;20041;-42
2022/07/16 00:35:26;;;;;;;2.28;1.58;;;;;;;;;;5015159;28;20022;-42
2022/07/16 00:37:51;;;;;;;8.07;1.48;;;;;;;;;;5014108;28;20048;-42
2022/07/16 00:40:17;;;;;;;1.92;1.70;;;;;;;;;;5015161;28;20017;-42
2022/07/16 00:42:42;;;;;;;2.13;1.60;;;;;;;;;;5015223;28;20029;-43
2022/07/16 00:45:08;;;;;;;2.55;1.40;;;;;;;;;;5014904;28;20482;-42
2022/07/16 00:47:33;;;;;;;2.53;1.52;;;;;;;;;;5014870;28;20026;-43
2022/07/16 00:49:59;;;;;;;4.15;1.60;;;;;;;;;;5015116;28;20034;-42
2022/07/16 00:52:24;;;;;;;2.88;1.50;;;;;;;;;;5014688;28;20466;-43
2022/07/16 00:54:50;;;;;;;4.25;1.70;;;;;;;;;;5014999;28;20101;-43
2022/07/16 00:57:16;;;;;;;3.42;1.67;;;;;;;;;;5014885;28;20516;-42
2022/07/16 00:59:41;;;;;;;1.67;1.40;;;;;;;;;;5014585;28;20021;-43
2022/07/16 01:02:07;;;;;;;2.08;1.60;;;;;;;;;;5014556;28;20113;-43
2022/07/16 01:04:33;;;;;;;2.13;1.40;;;;;;;;;;5014811;28;20030;-42
2022/07/16 01:06:58;;;;;;;2.28;1.52;;;;;;;;;;5013343;28;20036;-44
2022/07/16 01:09:25;;;;;;;11.70;1.58;;;;;;;;;;5014430;28;20029;-42
2022/07/16 01:11:52;;;;;;;3.13;1.40;;;;;;;;;;5013058;28;20052;-58
2022/07/16 01:14:18;;;;;;;6.00;1.45;;;;;;;;;;5014618;28;20382;-43
2022/07/16 01:16:43;;;;;;;4.38;1.65;;;;;;;;;;5014184;28;20029;-51
2022/07/16 01:19:10;;;;;;;1.83;1.30;;;;;;;;;;5014298;28;20060;-56
2022/07/16 01:21:36;;;;;;;2.15;1.40;;;;;;;;;;5014526;28;20030;-58
2022/07/16 01:24:01;;;;;;;2.20;1.60;;;;;;;;;;5014131;28;20496;-42
2022/07/16 01:26:27;;;;;;;1.42;1.33;;;;;;;;;;5014394;28;20446;-41
2022/07/16 01:28:52;;;;;;;2.75;1.83;;;;;;;;;;5014026;28;20559;-42
2022/07/16 01:31:18;;;;;;;4.75;1.70;;;;;;;;;;5014250;28;20029;-44
2022/07/16 01:33:43;;;;;;;6.85;1.30;;;;;;;;;;5013888;28;20088;-49
2022/07/16 01:36:14;;;;;;;3.78;1.60;;;;;;;;;;5013675;28;20052;-43
2022/07/16 01:38:44;;;;;;;2.10;1.45;;;;;;;;;;5014179;28;20037;-42
2022/07/16 01:41:11;;;;;;;2.25;1.50;;;;;;;;;;5013801;28;20034;-52
2022/07/16 01:43:36;;;;;;;1.88;1.50;;;;;;;;;;5014037;28;20114;-42
2022/07/16 01:46:02;;;;;;;4.32;1.65;;;;;;;;;;5013712;28;20452;-43
2022/07/16 01:48:30;;;;;;;2.80;1.52;;;;;;;;;;5013970;28;20030;-44
2022/07/16 01:50:56;;;;;;;3.58;1.83;;;;;;;;;;5013543;28;20026;-41
2022/07/16 01:53:22;;;;;;;4.00;1.45;;;;;;;;;;5013516;28;20516;-43
2022/07/16 01:55:48;;;;;;;2.17;1.33;;;;;;;;;;5013621;28;20022;-42
2022/07/16 01:58:15;;;;;;;3.75;1.55;;;;;;;;;;5013389;28;20489;-46
2022/07/16 02:00:43;;;;;;;3.03;1.70;;;;;;;;;;5013767;28;20033;-45
2022/07/16 02:03:08;;;;;;;2.80;1.40;;;;;;;;;;5013732;28;20034;-45
2022/07/16 02:05:35;;;;;;;2.42;1.75;;;;;;;;;;5012485;28;20045;-44
2022/07/16 02:08:01;;;;;;;2.72;1.50;;;;;;;;;;5013395;28;20025;-48
2022/07/16 02:10:26;;;;;;;2.63;1.63;;;;;;;;;;5013379;28;20038;-48
2022/07/16 02:12:52;;;;;;;2.85;1.80;;;;;;;;;;5013404;28;20022;-42
2022/07/16 02:15:17;;;;;;;3.95;1.88;;;;;;;;;;5013362;28;20425;-46
2022/07/16 02:17:43;;;;;;;3.08;1.90;;;;;;;;;;5013111;28;20030;-42
2022/07/16 02:20:09;;;;;;;3.33;1.70;;;;;;;;;;5013234;28;20030;-42
2022/07/16 02:22:35;;;;;;;6.15;2.25;;;;;;;;;;5013391;28;20029;-44
2022/07/16 02:25:01;;;;;;;3.65;2.05;;;;;;;;;;5013094;28;20030;-42
2022/07/16 02:27:27;;;;;;;2.80;2.00;;;;;;;;;;5013092;28;20470;-41
2022/07/16 02:29:53;;;;;;;3.60;2.20;;;;;;;;;;5013010;28;20045;-42
2022/07/16 02:32:18;;;;;;;5.50;2.33;;;;;;;;;;5013013;28;20030;-41
2022/07/16 02:34:43;;;;;;;3.70;2.20;;;;;;;;;;5011776;28;20038;-44
2022/07/16 02:37:09;;;;;;;4.13;2.10;;;;;;;;;;5010707;28;20057;-42
2022/07/16 02:39:35;;;;;;;4.93;2.30;;;;;;;;;;5013055;28;20466;-42
2022/07/16 02:42:00;;;;;;;2.70;2.00;;;;;;;;;;5012899;28;20095;-41
2022/07/16 02:44:26;;;;;;;5.55;2.30;;;;;;;;;;5012747;28;20030;-42
2022/07/16 02:46:51;;;;;;;2.63;2.28;;;;;;;;;;5013094;28;20029;-42
2022/07/16 02:49:17;;;;;;;3.50;2.50;;;;;;;;;;5013029;28;20536;-42
2022/07/16 02:51:42;;;;;;;5.43;2.70;;;;;;;;;;5012746;28;20026;-42
2022/07/16 02:54:07;;;;;;;4.10;2.22;;;;;;;;;;5012709;28;20032;-42
2022/07/16 02:56:33;;;;;;;5.18;2.22;;;;;;;;;;5012924;28;20033;-42
2022/07/16 02:58:58;;;;;;;3.08;2.50;;;;;;;;;;5012619;28;20026;-42
2022/07/16 03:01:24;;;;;;;3.95;2.45;;;;;;;;;;5012225;28;20026;-42
2022/07/16 03:03:50;;;;;;;4.35;2.55;;;;;;;;;;5012548;28;20025;-43
2022/07/16 03:06:15;;;;;;;4.68;2.72;;;;;;;;;;5012830;28;20034;-42
2022/07/16 03:08:41;;;;;;;4.85;2.60;;;;;;;;;;5012822;28;20042;-42
2022/07/16 03:11:06;;;;;;;3.90;2.30;;;;;;;;;;5012719;28;20050;-41
2022/07/16 03:13:32;;;;;;;4.85;2.63;;;;;;;;;;5012601;28;20433;-42
2022/07/16 03:15:57;;;;;;;4.68;2.38;;;;;;;;;;5012738;28;20021;-42
2022/07/16 03:18:23;;;;;;;6.38;2.55;;;;;;;;;;5012347;28;20037;-42
2022/07/16 03:20:48;;;;;;;5.57;2.67;;;;;;;;;;5012509;28;20087;-47
2022/07/16 03:23:14;;;;;;;5.22;2.70;;;;;;;;;;5012443;28;20025;-42
2022/07/16 03:25:41;;;;;;;7.00;2.60;;;;;;;;;;5012660;28;20037;-50
2022/07/16 03:28:08;;;;;;;6.10;2.50;;;;;;;;;;5012675;28;20028;-48
2022/07/16 03:30:35;;;;;;;3.78;2.38;;;;;;;;;;5012283;28;20025;-42
2022/07/16 03:33:00;;;;;;;5.00;2.70;;;;;;;;;;5012723;28;20100;-53
2022/07/16 03:35:26;;;;;;;5.82;2.70;;;;;;;;;;5012356;28;20470;-42
2022/07/16 03:40:36;;;;;;;4.30;2.50;;;;;;;;;;5012634;28;20032;-44
2022/07/16 03:43:02;;;;;;;2.90;2.30;;;;;;;;;;5012532;28;20023;-42
2022/07/16 03:45:29;;;;;;;5.38;2.30;;;;;;;;;;5012326;28;20120;-44
2022/07/16 03:47:54;;;;;;;5.80;3.03;;;;;;;;;;5012216;28;20061;-55
2022/07/16 03:50:20;;;;;;;5.97;2.67;;;;;;;;;;5012252;28;20072;-46
2022/07/16 03:52:46;;;;;;;5.50;2.78;;;;;;;;;;5012485;28;20029;-44
2022/07/16 03:55:12;;;;;;;6.45;2.80;;;;;;;;;;5012082;28;20033;-49
2022/07/16 03:57:38;;;;;;;7.60;3.30;;;;;;;;;;5012388;28;20084;-52
2022/07/16 04:00:05;;;;;;;3.30;2.47;;;;;;;;;;5012152;28;20034;-44
2022/07/16 04:02:30;;;;;;;4.25;2.70;;;;;;;;;;5012061;28;20434;-45
2022/07/16 04:04:56;;;;;;;4.70;2.42;;;;;;;;;;5012349;28;20102;-45
2022/07/16 04:07:21;;;;;;;4.53;2.67;;;;;;;;;;5012007;28;20474;-42
2022/07/16 04:09:47;;;;;;;3.17;2.50;;;;;;;;;;5011978;28;20152;-44
2022/07/16 04:12:12;;;;;;;7.13;2.67;;;;;;;;;;5012489;28;20041;-50
2022/07/16 04:14:38;;;;;;;5.63;2.72;;;;;;;;;;5015458;28;20120;-50
2022/07/16 04:17:03;;;;;;;5.10;3.17;;;;;;;;;;5015408;28;20038;-45
2022/07/16 04:19:28;;;;;;;4.43;2.95;;;;;;;;;;5015466;28;20157;-53
2022/07/16 04:21:54;;;;;;;6.03;2.60;;;;;;;;;;5015380;28;20045;-59
2022/07/16 04:24:20;;;;;;;3.30;2.45;;;;;;;;;;5015581;28;20115;-47
2022/07/16 04:26:45;;;;;;;6.88;2.65;;;;;;;;;;5015554;28;20030;-45
2022/07/16 04:29:11;;;;;;;3.55;2.30;;;;;;;;;;5013896;28;20026;-56
2022/07/16 04:31:37;;;;;;;7.20;2.67;;;;;;;;;;5015407;28;20084;-55
2022/07/16 04:34:02;;;;;;;7.47;2.47;;;;;;;;;;5015350;28;20030;-51
2022/07/16 04:36:28;;;;;;;3.90;2.55;;;;;;;;;;5014951;28;20501;-43
2022/07/16 04:38:53;;;;;;;3.22;2.58;;;;;;;;;;5013865;28;20355;-56
2022/07/16 04:41:18;;;;;;;5.95;2.30;;;;;;;;;;5014920;28;20026;-49
2022/07/16 04:43:44;;;;;;;4.63;2.47;;;;;;;;;;5014935;28;20030;-58
2022/07/16 04:46:09;;;;;;;3.10;2.55;;;;;;;;;;5014881;28;20038;-42
2022/07/16 04:48:35;;;;;;;2.78;2.25;;;;;;;;;;5014891;28;20025;-50
2022/07/16 04:51:00;;;;;;;2.50;2.20;;;;;;;;;;5013578;28;20030;-54
2022/07/16 04:53:26;;;;;;;2.70;2.30;;;;;;;;;;5015064;28;20026;-46
2022/07/16 04:55:51;;;;;;;4.03;2.53;;;;;;;;;;5014700;28;20029;-59
2022/07/16 04:58:17;;;;;;;2.55;2.20;;;;;;;;;;5014901;28;20120;-59
2022/07/16 05:00:42;;;;;;;5.90;2.58;;;;;;;;;;5014852;28;20478;-56
2022/07/16 05:03:08;;;;;;;2.78;2.03;;;;;;;;;;5014797;28;20022;-52
2022/07/16 05:05:37;;;;;;;2.28;2.08;;;;;;;;;;5014485;28;20026;-56
2022/07/16 05:08:05;;;;;;;4.07;2.20;;;;;;;;;;5014682;28;20444;-58
2022/07/16 05:10:30;;;;;;;3.80;2.22;;;;;;;;;;5014526;28;20482;-45
2022/07/16 05:12:57;;;;;;;2.45;2.20;;;;;;;;;;5013206;28;20113;-52
2022/07/16 05:15:23;;;;;;;4.55;1.88;;;;;;;;;;5014326;28;20034;-43
2022/07/16 05:17:48;;;;;;;3.22;2.10;;;;;;;;;;5012875;28;20033;-58
2022/07/16 05:20:14;;;;;;;2.05;1.83;;;;;;;;;;5014240;28;20105;-46
2022/07/16 05:22:40;;;;;;;2.40;1.73;;;;;;;;;;5014167;28;20030;-56
2022/07/16 05:25:07;;;;;;;2.15;1.80;;;;;;;;;;5012612;28;20113;-57
2022/07/16 05:27:33;;;;;;;1.90;1.58;;;;;;;;;;5014376;28;20026;-58
2022/07/16 05:29:58;;;;;;;3.85;1.70;;;;;;;;;;5014115;28;20592;-54
2022/07/16 05:32:24;;;;;;;1.63;1.52;;;;;;;;;;5014485;28;20049;-45
2022/07/16 05:34:50;;;;;;;2.20;1.63;;;;;;;;;;5014339;28;20467;-46
2022/07/16 05:37:15;;;;;;;2.90;1.52;;;;;;;;;;5013801;28;20536;-43
2022/07/16 05:39:41;;;;;;;2.20;1.80;;;;;;;;;;5013943;28;20037;-45
2022/07/16 05:42:06;;;;;;;5.30;1.90;;;;;;;;;;5012792;28;20026;-57
2022/07/16 05:44:32;;;;;;;2.83;1.58;;;;;;;;;;5012101;28;20476;-59
2022/07/16 05:46:57;;;;;;;1.98;1.50;;;;;;;;;;5013643;28;20036;-53
2022/07/16 05:49:23;;;;;;;2.58;1.80;;;;;;;;;;5013757;28;20076;-53
2022/07/16 05:51:48;;;;;;;2.05;1.50;;;;;;;;;;5013789;28;20029;-50
2022/07/16 05:54:14;;;;;;;1.55;1.45;;;;;;;;;;5013509;28;20018;-53
2022/07/16 05:56:39;;;;;;;1.98;1.70;;;;;;;;;;5013479;28;20026;-43
2022/07/16 05:59:05;;;;;;;2.42;1.80;;;;;;;;;;5013773;28;20026;-42
2022/07/16 06:01:31;;;;;;;1.70;1.60;;;;;;;;;;5013859;28;20499;-45
2022/07/16 06:03:57;;;;;;;3.58;1.70;;;;;;;;;;5013675;28;20045;-43
2022/07/16 06:06:22;;;;;;;4.10;1.70;;;;;;;;;;5013658;28;20498;-48
2022/07/16 06:08:48;;;;;;;2.15;1.63;;;;;;;;;;5011152;28;20466;-42
2022/07/16 06:11:13;;;;;;;3.17;1.90;;;;;;;;;;5012740;28;20498;-54
2022/07/16 06:13:39;;;;;;;1.63;1.52;;;;;;;;;;5012613;28;20034;-47
2022/07/16 06:16:07;;;;;;;1.70;1.60;;;;;;;;;;5012193;28;20029;-43
2022/07/16 06:18:33;;;;;;;2.15;1.50;;;;;;;;;;5013043;28;20380;-42
2022/07/16 06:20:58;;;;;;;3.33;1.70;;;;;;;;;;5013280;28;20018;-57
2022/07/16 06:23:23;;;;;;;3.88;1.70;;;;;;;;;;5013001;28;20033;-53
2022/07/16 06:25:49;;;;;;;2.17;1.63;;;;;;;;;;5013320;28;20068;-55
2022/07/16 06:28:14;;;;;;;2.35;1.80;;;;;;;;;;5013260;28;20105;-43
2022/07/16 06:30:40;;;;;;;3.05;1.90;;;;;;;;;;5013192;28;20037;-44
2022/07/16 06:33:05;;;;;;;3.10;1.55;;;;;;;;;;5012734;28;20446;-43
2022/07/16 06:35:31;;;;;;;2.38;1.88;;;;;;;;;;5012182;28;20030;-44
2022/07/16 06:37:56;;;;;;;3.85;1.73;;;;;;;;;;5011927;28;20045;-42
2022/07/16 06:40:22;;;;;;;1.98;1.60;;;;;;;;;;5009886;28;20113;-44
2022/07/16 06:42:47;;;;;;;5.65;1.80;;;;;;;;;;5008125;28;20069;-46
2022/07/16 06:45:13;;;;;;;2.05;1.60;;;;;;;;;;5011178;28;20022;-42
2022/07/16 06:47:39;;;;;;;2.47;1.50;;;;;;;;;;5011302;28;20056;-41
2022/07/16 06:50:05;;;;;;;2.17;1.55;;;;;;;;;;5010903;28;20500;-41
2022/07/16 06:52:30;;;;;;;2.95;1.52;;;;;;;;;;5010396;28;20149;-44
2022/07/16 06:54:55;;;;;;;3.53;1.88;;;;;;;;;;5010828;28;20026;-42
2022/07/16 06:57:22;;;;;;;3.75;1.85;;;;;;;;;;5011020;28;20481;-41
2022/07/16 06:59:47;;;;;;;1.67;1.58;;;;;;;;;;5011073;28;20034;-42
2022/07/16 07:02:13;;;;;;;3.33;1.80;;;;;;;;;;5011282;28;20058;-42
2022/07/16 07:04:39;;;;;;;2.13;1.48;;;;;;;;;;5011393;28;20041;-41
2022/07/16 07:07:05;;;;;;;2.55;1.80;;;;;;;;;;5011298;28;20030;-41
2022/07/16 07:09:31;;;;;;;2.85;1.75;;;;;;;;;;5010992;28;20096;-41
2022/07/16 07:11:56;;;;;;;2.95;1.73;;;;;;;;;;5011380;28;20037;-41
2022/07/16 07:14:22;;;;;;;1.60;1.50;;;;;;;;;;5009514;28;20121;-40
2022/07/16 07:16:48;;;;;;;4.35;1.60;;;;;;;;;;5011106;28;20036;-42
2022/07/16 07:19:13;;;;;;;2.03;1.85;;;;;;;;;;5010931;28;20025;-41
2022/07/16 07:21:39;;;;;;;2.05;1.63;;;;;;;;;;5011016;28;20057;-42
2022/07/16 07:24:05;;;;;;;1.83;1.65;;;;;;;;;;5010879;28;20413;-41
2022/07/16 07:26:31;;;;;;;2.30;1.77;;;;;;;;;;5010972;28;20501;-41
2022/07/16 07:28:57;;;;;;;2.15;1.40;;;;;;;;;;5009576;28;20092;-44
2022/07/16 07:31:22;;;;;;;2.17;1.52;;;;;;;;;;5010632;28;20037;-42
2022/07/16 07:33:48;;;;;;;4.07;1.90;;;;;;;;;;5010036;28;20145;-40
2022/07/16 07:36:14;;;;;;;3.83;1.75;;;;;;;;;;5009885;28;20064;-41
2022/07/16 07:38:39;;;;;;;2.78;1.70;;;;;;;;;;5010421;28;20129;-42
2022/07/16 07:41:05;;;;;;;1.95;1.45;;;;;;;;;;5010106;28;20022;-42
2022/07/16 07:43:30;;;;;;;2.63;1.70;;;;;;;;;;5010291;28;20060;-40
2022/07/16 07:45:57;;;;;;;2.75;1.67;;;;;;;;;;5010269;28;20117;-42
2022/07/16 07:48:24;;;;;;;2.15;1.50;;;;;;;;;;5014049;28;20049;-41
2022/07/16 07:50:50;;;;;;;3.75;1.60;;;;;;;;;;5014051;28;20069;-41
2022/07/16 07:53:15;;;;;;;1.63;1.50;;;;;;;;;;5014313;28;20108;-42
2022/07/16 07:55:42;;;;;;;1.50;1.40;;;;;;;;;;5013877;28;20113;-46
2022/07/16 07:58:08;;;;;;;3.90;1.48;;;;;;;;;;5013669;28;20096;-47
2022/07/16 08:00:33;;;;;;;2.67;1.40;;;;;;;;;;5013656;28;20466;-42
2022/07/16 08:02:59;;;;;;;1.95;1.40;;;;;;;;;;5013517;28;20030;-44
2022/07/16 08:05:25;;;;;;;1.40;1.30;;;;;;;;;;5013373;28;20084;-42
2022/07/16 08:07:50;;;;;;;2.72;1.40;;;;;;;;;;5013750;28;20038;-42
2022/07/16 08:10:16;;;;;;;3.63;1.63;;;;;;;;;;5013991;28;20080;-44
2022/07/16 08:12:43;;;;;;;2.47;1.23;;;;;;;;;;5012471;28;20038;-44
2022/07/16 08:15:09;;;;;;;2.80;1.02;;;;;;;;;;5013774;28;20064;-42
2022/07/16 08:17:35;;;;;;;3.03;1.17;;;;;;;;;;5013586;28;20413;-41
2022/07/16 08:20:00;;;;;;;1.15;1.08;;;;;;;;;;5013621;28;20036;-45
2022/07/16 08:22:26;;;;;;;1.70;1.00;;;;;;;;;;5013417;28;20044;-43
2022/07/16 08:27:35;;;;;;;1.73;1.40;;;;;;;;;;5012333;28;20475;-41
2022/07/16 08:30:01;;;;;;;1.30;1.20;;;;;;;;;;5013091;28;20053;-41
2022/07/16 08:32:26;;;;;;;2.38;1.30;;;;;;;;;;5012339;28;20038;-40
2022/07/16 08:34:52;;;;;;;4.32;1.33;;;;;;;;;;5012642;28;20142;-42
2022/07/16 08:37:30;;;;;;;1.90;1.30;;;;;;;;;;5013232;28;20061;-42
2022/07/16 08:39:56;;;;;;;3.80;1.40;;;;;;;;;;5013337;28;20112;-43
2022/07/16 08:42:22;;;;;;;1.00;1.00;;;;;;;;;;5012871;28;20145;-42
2022/07/16 08:44:49;;;;;;;1.33;1.10;;;;;;;;;;5013285;28;20038;-45
2022/07/16 08:47:15;;;;;;;1.55;1.10;;;;;;;;;;5013419;28;20029;-42
2022/07/16 08:49:43;;;;;;;1.88;1.27;;;;;;;;;;5012763;28;20034;-42
2022/07/16 08:52:09;;;;;;;1.83;1.40;;;;;;;;;;5012751;28;20486;-43
2022/07/16 08:54:36;;;;;;;2.78;1.40;;;;;;;;;;5012927;28;20059;-42
2022/07/16 08:57:02;;;;;;;3.10;1.88;;;;;;;;;;5012976;28;20053;-42
2022/07/16 08:59:27;;;;;;;1.80;1.38;;;;;;;;;;5012792;28;20482;-42
2022/07/16 09:01:53;;;;;;;2.33;1.73;;;;;;;;;;5013090;28;20014;-43
2022/07/16 09:04:18;;;;;;;2.03;1.40;;;;;;;;;;5012652;28;20033;-41
2022/07/16 09:06:46;;;;;;;3.90;1.30;;;;;;;;;;5012737;28;20018;-41
2022/07/16 09:09:12;;;;;;;1.33;1.20;;;;;;;;;;5012967;28;20386;-44
2022/07/16 09:11:38;;;;;;;1.75;1.25;;;;;;;;;;5012781;28;20029;-43
2022/07/16 09:14:07;;;;;;;1.88;1.20;;;;;;;;;;5012797;28;20040;-41
2022/07/16 09:16:36;;;;;;;6.10;1.20;;;;;;;;;;5012720;28;20614;-41
2022/07/16 09:19:30;;;;;;;1.40;1.25;;;;;;;;;;5012969;28;20100;-42
2022/07/16 09:22:08;;;;;;;1.63;1.20;;;;;;;;;;5012568;28;20052;-42
2022/07/16 09:24:38;;;;;;;1.50;1.40;;;;;;;;;;5010359;28;20032;-42
2022/07/16 09:27:09;;;;;;;2.08;1.40;;;;;;;;;;5012232;28;20172;-42
2022/07/16 09:29:49;;;;;;;5.03;1.50;;;;;;;;;;5012454;28;20037;-41
2022/07/16 09:32:36;;;;;;;2.78;1.38;;;;;;;;;;5012230;28;20056;-42
2022/07/16 09:35:11;;;;;;;7.53;1.73;;;;;;;;;;5011698;28;20037;-41
2022/07/16 09:37:46;;;;;;;1.92;1.40;;;;;;;;;;5009714;28;20066;-42
2022/07/16 09:40:13;;;;;;;2.78;1.40;;;;;;;;;;5009369;28;20030;-41
2022/07/16 09:42:39;;;;;;;2.78;1.33;;;;;;;;;;5012419;28;20033;-45
2022/07/16 09:45:07;;;;;;;2.40;1.20;;;;;;;;;;5012512;28;20034;-42
2022/07/16 09:47:33;;;;;;;15.30;2.08;;;;;;;;;;5012173;28;20494;-41
2022/07/16 09:49:58;;;;;;;1.45;1.35;;;;;;;;;;5012074;28;20080;-41
2022/07/16 09:52:32;;;;;;;1.23;1.20;;;;;;;;;;5012127;28;20057;-41
2022/07/16 09:54:59;;;;;;;4.20;1.48;;;;;;;;;;5012090;28;20034;-41
2022/07/16 09:57:27;;;;;;;1.00;1.00;;;;;;;;;;5011988;28;20359;-41
2022/07/16 09:59:53;;;;;;;1.95;1.20;;;;;;;;;;5012142;28;20030;-41
2022/07/16 10:02:19;;;;;;;4.38;1.55;;;;;;;;;;5011758;28;20029;-45
2022/07/16 10:04:44;;;;;;;1.40;1.30;;;;;;;;;;5010679;28;20033;-43
2022/07/16 10:07:10;;;;;;;1.83;1.42;;;;;;;;;;5011597;28;20433;-42
2022/07/16 10:09:36;;;;;;;1.55;1.27;;;;;;;;;;5011495;28;20118;-44
2022/07/16 10:12:08;;;;;;;2.10;1.20;;;;;;;;;;5010986;28;20050;-42
2022/07/16 10:14:35;;;;;;;4.50;1.20;;;;;;;;;;5009402;28;20080;-42
2022/07/16 10:17:12;;;;;;;2.78;1.40;;;;;;;;;;5011476;28;20034;-42
2022/07/16 10:19:37;;;;;;;1.52;1.40;;;;;;;;;;5012239;28;20105;-42
2022/07/16 10:22:28;;;;;;;1.45;1.30;;;;;;;;;;5011501;28;20434;-40
2022/07/16 10:24:55;;;;;;;2.78;1.20;;;;;;;;;;5011866;28;20108;-42
2022/07/16 10:27:30;;;;;;;1.42;1.30;;;;;;;;;;5011092;28;20531;-41
2022/07/16 10:30:19;;;;;;;2.42;1.30;;;;;;;;;;5011689;28;20048;-42
2022/07/16 10:33:00;;;;;;;1.40;1.30;;;;;;;;;;5011362;28;20026;-45
2022/07/16 10:35:46;;;;;;;4.45;1.13;;;;;;;;;;5011295;28;20033;-42
2022/07/16 10:38:24;;;;;;;2.03;1.50;;;;;;;;;;5011063;28;20053;-41
2022/07/16 10:41:13;;;;;;;3.47;1.38;;;;;;;;;;5011572;28;20048;-40
2022/07/16 10:43:38;;;;;;;5.50;1.20;;;;;;;;;;5011534;28;20133;-42
2022/07/16 10:46:06;;;;;;;1.88;1.27;;;;;;;;;;5011451;28;20041;-43
2022/07/16 10:48:37;;;;;;;3.70;1.10;;;;;;;;;;5011487;28;20077;-41
2022/07/16 10:51:17;;;;;;;1.63;1.30;;;;;;;;;;5011297;28;20408;-42
2022/07/16 10:53:57;;;;;;;1.40;1.30;;;;;;;;;;5011278;28;20026;-42
2022/07/16 10:56:36;;;;;;;2.97;1.20;;;;;;;;;;5011039;28;20109;-45
2022/07/16 10:59:03;;;;;;;2.50;1.17;;;;;;;;;;5010993;28;20120;-42
2022/07/16 11:01:29;;;;;;;4.97;1.52;;;;;;;;;;5011307;28;20025;-41
2022/07/16 11:03:55;;;;;;;2.95;1.58;;;;;;;;;;5011065;28;20489;-41
2022/07/16 11:06:22;;;;;;;1.50;1.40;;;;;;;;;;5010890;28;20045;-43
2022/07/16 11:08:57;;;;;;;1.98;1.27;;;;;;;;;;5011072;28;20541;-43
2022/07/16 11:11:23;;;;;;;3.10;1.60;;;;;;;;;;5011064;28;20058;-47
2022/07/16 11:13:52;;;;;;;3.97;1.50;;;;;;;;;;5010912;28;20065;-43
2022/07/16 11:16:20;;;;;;;2.83;1.58;;;;;;;;;;5010746;28;20032;-44
2022/07/16 11:18:48;;;;;;;1.42;1.33;;;;;;;;;;5009470;28;20126;-44
2022/07/16 11:21:13;;;;;;;2.38;1.40;;;;;;;;;;5011583;28;20017;-42
2022/07/16 11:24:01;;;;;;;1.35;1.25;;;;;;;;;;5015195;28;20366;-42
2022/07/16 11:26:29;;;;;;;2.95;1.60;;;;;;;;;;5015130;28;20049;-43
2022/07/16 11:28:58;;;;;;;1.90;1.40;;;;;;;;;;5015035;28;20028;-43
2022/07/16 11:31:35;;;;;;;1.60;1.35;;;;;;;;;;5015204;28;20492;-43
2022/07/16 11:34:06;;;;;;;2.95;1.48;;;;;;;;;;5014500;28;20030;-52
2022/07/16 11:36:38;;;;;;;1.52;1.30;;;;;;;;;;5014436;28;20409;-42
2022/07/16 11:39:12;;;;;;;2.90;1.50;;;;;;;;;;5010798;28;20044;-50
2022/07/16 11:41:41;;;;;;;2.05;1.30;;;;;;;;;;5011023;28;20030;-43
2022/07/16 11:44:22;;;;;;;4.00;2.00;;;;;;;;;;5013702;28;20022;-42
2022/07/16 11:46:53;;;;;;;3.22;1.33;;;;;;;;;;5014390;28;20040;-43
2022/07/16 11:49:28;;;;;;;1.70;1.52;;;;;;;;;;5014013;28;20486;-41
2022/07/16 11:51:56;;;;;;;2.35;1.58;;;;;;;;;;5014265;28;20474;-41
2022/07/16 11:54:23;;;;;;;3.03;1.38;;;;;;;;;;5014405;28;20105;-42
2022/07/16 11:56:49;;;;;;;2.38;1.60;;;;;;;;;;5013711;28;20021;-44
2022/07/16 11:59:39;;;;;;;3.22;1.42;;;;;;;;;;5014296;28;20048;-41
2022/07/16 12:02:10;;;;;;;4.78;1.52;;;;;;;;;;5014563;28;20084;-41
2022/07/16 12:04:42;;;;;;;1.85;1.60;;;;;;;;;;5014269;28;20030;-41
2022/07/16 12:07:16;;;;;;;4.50;1.58;;;;;;;;;;5014343;28;20172;-42
2022/07/16 12:09:44;;;;;;;4.78;1.70;;;;;;;;;;5014043;28;20034;-42
2022/07/16 12:12:12;;;;;;;1.60;1.50;;;;;;;;;;5014292;28;20160;-42
2022/07/16 12:14:58;;;;;;;1.67;1.45;;;;;;;;;;5014268;28;20029;-41
2022/07/16 12:17:24;;;;;;;1.98;1.50;;;;;;;;;;5014030;28;20046;-41
2022/07/16 12:20:28;;;;;;;1.83;1.67;;;;;;;;;;5013977;28;20389;-46
2022/07/16 12:23:11;;;;;;;3.17;1.80;;;;;;;;;;4933639;29;20090;-43
2022/07/16 12:25:42;;;;;;;2.53;1.40;;;;;;;;;;4933199;29;20436;-47
2022/07/16 12:28:20;;;;;;;1.70;1.40;;;;;;;;;;4982041;28;20045;-41
2022/07/16 12:30:52;;;;;;;2.38;1.60;;;;;;;;;;5012165;28;20026;-45
2022/07/16 12:33:23;;;;;;;2.00;1.70;;;;;;;;;;5009678;28;20422;-45
2022/07/16 12:35:59;;;;;;;1.67;1.58;;;;;;;;;;5013017;28;20077;-40
2022/07/16 12:39:02;;;;;;;1.63;1.50;;;;;;;;;;5011604;28;20573;-41
2022/07/16 12:41:42;;;;;;;1.88;1.52;;;;;;;;;;5013677;28;20137;-41
2022/07/16 12:44:13;;;;;;;3.17;1.90;;;;;;;;;;5011921;28;20041;-41
2022/07/16 12:46:41;;;;;;;1.70;1.60;;;;;;;;;;5013479;28;20117;-42
2022/07/16 12:49:09;;;;;;;3.47;1.70;;;;;;;;;;5013284;28;20026;-41
2022/07/16 12:51:41;;;;;;;2.03;1.70;;;;;;;;;;4995895;28;20038;-40
2022/07/16 12:54:08;;;;;;;6.45;1.90;;;;;;;;;;5012831;28;20042;-41
2022/07/16 12:59:22;;;;;;;3.28;1.67;;;;;;;;;;5012919;28;20068;-40
2022/07/16 13:01:47;;;;;;;2.97;1.80;;;;;;;;;;5012747;28;20474;-40
2022/07/16 13:04:14;;;;;;;2.00;1.60;;;;;;;;;;5011929;28;20028;-42
2022/07/16 13:06:40;;;;;;;2.05;1.70;;;;;;;;;;5012000;28;20034;-43
2022/07/16 13:09:07;;;;;;;1.65;1.50;;;;;;;;;;5011479;28;20041;-41
2022/07/16 13:11:37;;;;;;;2.30;1.70;;;;;;;;;;5010846;28;20084;-42
2022/07/16 13:14:04;;;;;;;2.55;1.60;;;;;;;;;;5012269;28;20033;-45
2022/07/16 13:16:30;;;;;;;1.50;1.35;;;;;;;;;;5012173;28;20026;-41
2022/07/16 13:18:56;;;;;;;2.40;1.70;;;;;;;;;;5012906;28;20492;-42
2022/07/16 13:21:23;;;;;;;2.50;1.67;;;;;;;;;;5012953;28;20029;-43
2022/07/16 13:23:53;;;;;;;3.83;1.80;;;;;;;;;;5012695;28;20156;-41
2022/07/16 13:26:19;;;;;;;1.90;1.70;;;;;;;;;;5011188;28;20505;-44
2022/07/16 13:28:44;;;;;;;3.20;1.60;;;;;;;;;;5012817;28;20049;-45
2022/07/16 13:31:10;;;;;;;1.83;1.50;;;;;;;;;;5012430;28;20022;-41
2022/07/16 13:33:36;;;;;;;1.98;1.70;;;;;;;;;;5012470;28;20026;-42
2022/07/16 13:36:02;;;;;;;2.33;1.70;;;;;;;;;;5012478;28;20026;-44
2022/07/16 13:38:28;;;;;;;1.90;1.52;;;;;;;;;;4992595;28;20048;-41
2022/07/16 13:40:54;;;;;;;2.47;1.60;;;;;;;;;;4992506;28;20026;-41
2022/07/16 13:43:20;;;;;;;5.13;1.90;;;;;;;;;;4992819;28;20022;-47
2022/07/16 13:45:47;;;;;;;3.72;1.83;;;;;;;;;;4991243;28;20409;-42
2022/07/16 13:48:12;;;;;;;2.58;1.60;;;;;;;;;;4992547;28;20044;-43
2022/07/16 13:50:40;;;;;;;2.55;1.77;;;;;;;;;;4992857;28;20022;-40
2022/07/16 13:53:05;;;;;;;2.13;1.75;;;;;;;;;;4992308;28;20097;-44
2022/07/16 19:44:44;;;;;;;3.03;2.15;;;;;;;;;;4970473;23;20135;-42
2022/07/16 19:47:10;;;;;;;3.40;2.08;;;;;;;;;;4918199;29;20119;-39
2022/07/16 19:49:36;;;;;;;3.35;2.22;;;;;;;;;;4918299;29;20036;-39
2022/07/16 19:52:01;;;;;;;7.22;2.38;;;;;;;;;;4917816;29;20391;-42
2022/07/16 19:54:27;;;;;;;4.32;2.38;;;;;;;;;;4917915;29;20050;-43
2022/07/16 19:59:37;;;;;;;3.47;2.53;;;;;;;;;;4915743;29;20067;-39
2022/07/16 20:02:02;;;;;;;4.18;2.65;;;;;;;;;;4916178;29;20031;-41
2022/07/16 20:04:29;;;;;;;3.17;2.65;;;;;;;;;;4899041;29;20035;-41
2022/07/16 20:06:55;;;;;;;5.60;2.88;;;;;;;;;;4898775;29;20124;-38
2022/07/16 20:09:20;;;;;;;7.93;3.50;;;;;;;;;;4898736;29;20055;-40
2022/07/16 20:11:49;;;;;;;8.48;3.05;;;;;;;;;;4897495;29;20067;-41
2022/07/16 20:14:14;;;;;;;4.78;2.75;;;;;;;;;;4915820;29;20586;-39
2022/07/16 20:16:40;;;;;;;15.30;4.10;;;;;;;;;;4915999;29;20065;-44
2022/07/16 20:19:07;;;;;;;6.93;3.08;;;;;;;;;;4917311;29;20032;-39
2022/07/16 20:21:33;;;;;;;8.30;3.40;;;;;;;;;;4917461;29;20117;-40
2022/07/16 20:24:00;;;;;;;4.43;2.97;;;;;;;;;;4917353;29;20572;-39
2022/07/16 20:26:28;;;;;;;7.18;3.30;;;;;;;;;;4917576;29;20397;-39
2022/07/16 20:28:54;;;;;;;6.60;2.97;;;;;;;;;;4917230;29;20489;-40
2022/07/16 20:31:20;;;;;;;18.67;4.00;;;;;;;;;;4917266;29;20165;-39
2022/07/16 20:33:45;;;;;;;10.48;3.40;;;;;;;;;;4917425;29;20024;-39
2022/07/16 20:36:11;;;;;;;8.55;3.10;;;;;;;;;;4917671;29;20040;-41
2022/07/16 20:38:38;;;;;;;5.55;3.17;;;;;;;;;;4917361;29;20122;-40
2022/07/16 20:41:04;;;;;;;5.28;2.97;;;;;;;;;;4916954;29;20087;-39
2022/07/16 20:43:30;;;;;;;6.95;3.15;;;;;;;;;;4916935;29;20123;-39
2022/07/16 20:45:55;;;;;;;4.97;2.72;;;;;;;;;;4916825;29;20243;-41
2022/07/16 20:48:21;;;;;;;9.77;2.70;;;;;;;;;;4917125;29;20032;-38
2022/07/16 20:50:47;;;;;;;3.90;2.47;;;;;;;;;;4915874;29;20111;-38